Birmingham (BHM/KBHM)

Map

Destinations

Information

Location
Birmingham, AL
Local Time
12:36 / 12:36 pm
GMT Time
18:36 / 6:36 pm
Gates
Unassigned
No FAA reported delays
METAR KBHM 191753Z 33007KT 10SM FEW040 21/10 A3012 RMK AO2 SLP196 T02060100 10206 20078 58007
TAF KBHM 191723Z 1918/2018 36005KT P6SM FEW035 FM192000 06002KT P6SM FEW250 FM200900 00000KT 5SM BR FEW250 FM201200 08003KT P6SM FEW250 FM201500 11004KT P6SM SKC
  • No charts available